Frederikshaab, Greenland
Current Conditions -  °F | °C
As of 6:50 AM on Saturday 25 Oct 2014 (Local Time) from BGBW Reporting Station
Few Clouds Few Clouds  
Wind Chill: 15°   Ceiling: Unl
Heat Index: 23°   Visibility: 6mi
Dew Point: -4°   Wind: 7mph
Humidity: 31%   Direction: 80°E
Pressure: 29.41"   Gusts: NA
Location:  61.99°N, 49.66°W
Report Text: BGBW 250850Z 08006KT 010V130 9999 FEW100 M05/M20 Q0996
Loading
Personal Weather Stations






























Interactive Weather Map
Tropical Storm Tracking
New forecast layout! Learn more

10-Day Weather Forecast

Advertisements
Track Severe Weather on mobile